createdAt,value
2023-10-23T00:02:07.135Z,100.00
2023-10-23T00:05:10.036Z,100.00
2023-10-23T00:08:12.938Z,100.00
2023-10-23T00:11:25.966Z,100.00
2023-10-23T00:14:28.908Z,100.00
2023-10-23T00:17:31.784Z,100.00
2023-10-23T00:20:34.435Z,100.00
2023-10-23T00:23:37.226Z,100.00
2023-10-23T00:26:39.884Z,100.00
2023-10-23T00:29:42.616Z,100.00
2023-10-23T00:32:46.062Z,100.00
2023-10-23T00:35:49.456Z,100.00
2023-10-23T00:38:52.184Z,100.00
2023-10-23T00:41:54.927Z,100.00
2023-10-23T00:44:57.564Z,100.00
2023-10-23T00:48:00.359Z,100.00
2023-10-23T00:51:04.514Z,100.00
2023-10-23T00:54:07.830Z,100.00
2023-10-23T00:57:10.657Z,100.00
2023-10-23T01:00:14.866Z,100.00
2023-10-23T01:03:18.162Z,100.00
2023-10-23T01:06:21.756Z,100.00
2023-10-23T01:09:24.615Z,100.00
2023-10-23T01:12:27.314Z,100.00
2023-10-23T01:15:30.093Z,100.00
2023-10-23T01:18:32.899Z,100.00
2023-10-23T01:21:35.563Z,100.00
2023-10-23T01:24:42.723Z,100.00
2023-10-23T01:27:45.370Z,100.00
2023-10-23T01:30:48.780Z,100.00
2023-10-23T01:33:53.174Z,100.00
2023-10-23T01:36:56.063Z,100.00
2023-10-23T01:39:58.786Z,100.00
2023-10-23T01:43:01.528Z,100.00
2023-10-23T01:46:04.287Z,100.00
2023-10-23T01:49:06.953Z,100.00
2023-10-23T01:52:09.750Z,100.00
2023-10-23T01:55:12.486Z,100.00
2023-10-23T01:58:15.116Z,100.00
2023-10-23T02:01:25.910Z,100.00
2023-10-23T02:04:29.874Z,100.00
2023-10-23T02:07:32.686Z,100.00
2023-10-23T02:10:35.301Z,100.00
2023-10-23T02:13:38.430Z,100.00
2023-10-23T02:16:41.187Z,100.00
2023-10-23T02:19:44.060Z,100.00
2023-10-23T02:22:46.694Z,100.00
2023-10-23T02:25:49.355Z,100.00
2023-10-23T02:28:52.448Z,100.00
2023-10-23T02:31:55.280Z,100.00
2023-10-23T02:34:58.096Z,100.00
2023-10-23T02:38:00.910Z,100.00
2023-10-23T02:41:03.590Z,100.00
2023-10-23T02:44:06.908Z,100.00
2023-10-23T02:47:09.574Z,100.00
2023-10-23T02:50:12.372Z,100.00
2023-10-23T02:53:15.146Z,100.00
2023-10-23T02:56:17.733Z,100.00
2023-10-23T02:59:22.173Z,100.00
2023-10-23T03:02:25.019Z,100.00
2023-10-23T03:05:27.762Z,100.00
2023-10-23T03:08:30.430Z,100.00
2023-10-23T03:11:33.247Z,100.00
2023-10-23T03:14:35.931Z,100.00
2023-10-23T03:17:38.702Z,100.00
2023-10-23T03:20:42.060Z,100.00
2023-10-23T03:23:44.887Z,100.00
2023-10-23T03:26:47.566Z,100.00
2023-10-23T03:29:50.237Z,100.00
2023-10-23T03:32:53.057Z,100.00
2023-10-23T03:35:56.556Z,100.00
2023-10-23T03:38:59.184Z,100.00
2023-10-23T03:42:03.746Z,100.00
2023-10-23T03:45:07.699Z,100.00
2023-10-23T03:48:10.387Z,100.00
2023-10-23T03:51:13.160Z,100.00
2023-10-23T03:54:15.831Z,100.00
2023-10-23T03:57:18.439Z,100.00
2023-10-23T04:00:21.179Z,100.00
2023-10-23T04:03:23.961Z,100.00
2023-10-23T04:06:26.739Z,100.00
2023-10-23T04:09:32.802Z,100.00
2023-10-23T04:12:35.981Z,100.00
2023-10-23T04:15:38.736Z,100.00
2023-10-23T04:18:41.450Z,100.00
2023-10-23T04:21:44.179Z,100.00
2023-10-23T04:24:48.568Z,100.00
2023-10-23T04:27:51.320Z,100.00
2023-10-23T04:30:54.322Z,100.00
2023-10-23T04:33:57.092Z,100.00
2023-10-23T04:36:59.797Z,100.00
2023-10-23T04:40:02.584Z,100.00
2023-10-23T04:43:05.549Z,100.00
2023-10-23T04:46:08.367Z,100.00
2023-10-23T04:49:11.059Z,100.00
2023-10-23T04:52:13.680Z,100.00
2023-10-23T04:55:16.494Z,100.00
2023-10-23T04:58:19.246Z,100.00
2023-10-23T05:01:23.545Z,100.00
2023-10-23T05:04:26.415Z,100.00
2023-10-23T05:07:29.143Z,100.00
2023-10-23T05:10:32.043Z,100.00
2023-10-23T05:13:34.819Z,100.00
2023-10-23T05:16:37.641Z,100.00
2023-10-23T05:19:40.640Z,100.00
2023-10-23T05:22:43.467Z,100.00
2023-10-23T05:25:48.946Z,100.00
2023-10-23T05:28:52.921Z,100.00
2023-10-23T05:31:55.703Z,100.00
2023-10-23T05:34:58.502Z,100.00
2023-10-23T05:38:01.309Z,100.00
2023-10-23T05:41:04.338Z,100.00
2023-10-23T05:44:07.044Z,100.00
2023-10-23T05:47:09.829Z,100.00
2023-10-23T05:50:12.480Z,100.00
2023-10-23T05:53:15.188Z,100.00
2023-10-23T05:56:17.901Z,100.00
2023-10-23T05:59:20.685Z,100.00
2023-10-23T06:02:23.341Z,100.00
2023-10-23T06:05:25.951Z,100.00
2023-10-23T06:08:28.673Z,100.00
2023-10-23T06:11:32.236Z,100.00
2023-10-23T06:14:34.893Z,100.00
2023-10-23T06:17:37.731Z,100.00
2023-10-23T06:20:40.470Z,100.00
2023-10-23T06:23:43.069Z,100.00
2023-10-23T06:26:45.758Z,100.00
2023-10-23T06:29:50.561Z,100.00
2023-10-23T06:32:53.415Z,100.00
2023-10-23T06:35:59.962Z,100.00
2023-10-23T06:39:02.801Z,100.00
2023-10-23T06:42:05.797Z,100.00
2023-10-23T06:45:08.770Z,100.00
2023-10-23T06:48:11.719Z,100.00
2023-10-23T06:51:17.188Z,97.22
2023-10-23T06:54:22.779Z,94.13
2023-10-23T06:57:25.630Z,89.89
2023-10-23T07:00:28.323Z,87.93
2023-10-23T07:03:31.076Z,78.25
2023-10-23T07:06:34.934Z,74.39
2023-10-23T07:09:37.764Z,70.77
2023-10-23T07:12:40.779Z,65.35
2023-10-23T07:15:43.528Z,66.98
2023-10-23T07:18:46.818Z,61.59
2023-10-23T07:21:49.575Z,63.98
2023-10-23T07:24:55.884Z,61.97
2023-10-23T07:27:59.630Z,58.98
2023-10-23T07:31:06.541Z,53.73
2023-10-23T07:34:09.416Z,53.04
2023-10-23T07:37:19.497Z,55.77
2023-10-23T07:40:22.977Z,53.93
2023-10-23T07:43:27.121Z,52.06
2023-10-23T07:46:29.876Z,51.47
2023-10-23T07:49:32.626Z,47.07
2023-10-23T07:52:35.289Z,45.35
2023-10-23T07:55:39.001Z,46.41
2023-10-23T07:58:41.873Z,43.07
2023-10-23T08:01:44.691Z,43.10
2023-10-23T08:04:49.038Z,43.88
2023-10-23T08:07:51.931Z,43.65
2023-10-23T08:10:54.739Z,40.84
2023-10-23T08:13:57.523Z,40.23
2023-10-23T08:17:00.194Z,40.02
2023-10-23T08:20:03.056Z,39.44
2023-10-23T08:23:05.686Z,41.06
2023-10-23T08:26:08.750Z,39.82
2023-10-23T08:29:11.426Z,40.57
2023-10-23T08:32:17.307Z,41.90
2023-10-23T08:35:20.611Z,43.41
2023-10-23T08:38:23.268Z,38.76
2023-10-23T08:41:27.354Z,38.15
2023-10-23T08:44:30.438Z,36.49
2023-10-23T08:47:33.147Z,37.09
2023-10-23T08:50:37.427Z,35.37
2023-10-23T08:54:02.721Z,34.89
2023-10-23T08:57:12.910Z,33.98
2023-10-23T09:00:39.984Z,33.75
2023-10-23T09:04:02.347Z,33.30
2023-10-23T09:07:05.484Z,30.00
2023-10-23T09:10:08.616Z,33.56
2023-10-23T09:13:11.367Z,31.89
2023-10-23T09:16:14.407Z,30.65
2023-10-23T09:19:40.283Z,32.03
2023-10-23T09:22:49.901Z,31.01
2023-10-23T09:25:59.110Z,30.68
2023-10-23T09:29:01.887Z,31.03
2023-10-23T09:32:10.594Z,32.90
2023-10-23T09:35:16.082Z,31.89
2023-10-23T09:38:19.599Z,30.48
2023-10-23T09:41:22.601Z,29.45
2023-10-23T09:44:28.082Z,30.26
2023-10-23T09:47:31.081Z,30.83
2023-10-23T09:50:35.304Z,30.69
2023-10-23T09:53:39.078Z,31.70
2023-10-23T09:56:48.720Z,31.17
2023-10-23T10:00:00.952Z,29.90
2023-10-23T10:03:09.792Z,30.71
2023-10-23T10:06:15.192Z,28.71
2023-10-23T10:09:18.451Z,29.55
2023-10-23T10:12:22.456Z,28.63
2023-10-23T10:15:25.799Z,28.62
2023-10-23T10:18:30.536Z,29.04
2023-10-23T10:21:42.235Z,28.69
2023-10-23T10:24:46.506Z,28.06
2023-10-23T10:27:59.174Z,29.02
2023-10-23T10:31:01.985Z,27.38
2023-10-23T10:34:27.875Z,28.58
2023-10-23T10:37:32.915Z,29.05
2023-10-23T10:41:02.768Z,28.56
2023-10-23T10:44:11.391Z,26.53
2023-10-23T10:47:17.003Z,27.08
2023-10-23T10:50:42.429Z,26.31
2023-10-23T10:53:47.816Z,25.76
2023-10-23T10:56:52.779Z,25.92
2023-10-23T10:59:56.733Z,24.44
2023-10-23T11:03:00.082Z,30.14
2023-10-23T11:06:02.818Z,29.86
2023-10-23T11:09:07.842Z,29.54
2023-10-23T11:12:10.517Z,32.21
2023-10-23T11:15:14.854Z,34.94
2023-10-23T11:18:18.038Z,33.83
2023-10-23T11:21:24.578Z,33.59
2023-10-23T11:24:27.344Z,30.90
2023-10-23T11:27:29.993Z,35.14
2023-10-23T11:30:32.910Z,35.91
2023-10-23T11:33:37.329Z,37.74
2023-10-23T11:36:40.482Z,39.82
2023-10-23T11:39:43.762Z,40.14
2023-10-23T11:42:57.512Z,40.41
2023-10-23T11:46:00.538Z,42.82
2023-10-23T11:49:03.895Z,42.90
2023-10-23T11:52:06.883Z,43.61
2023-10-23T11:55:12.090Z,44.07
2023-10-23T11:58:14.814Z,41.22
2023-10-23T12:01:17.521Z,36.61
2023-10-23T12:04:20.383Z,33.25
2023-10-23T12:07:23.085Z,30.70
2023-10-23T12:10:27.703Z,29.59
2023-10-23T12:13:30.525Z,30.36
2023-10-23T12:16:33.769Z,30.35
2023-10-23T12:19:36.870Z,27.70
2023-10-23T12:22:44.073Z,28.51
2023-10-23T12:25:46.753Z,28.77
2023-10-23T12:28:49.387Z,28.64
2023-10-23T12:32:01.721Z,29.09
2023-10-23T12:35:05.700Z,29.20
2023-10-23T12:38:08.599Z,29.93
2023-10-23T12:41:11.302Z,30.21
2023-10-23T12:44:14.027Z,28.08
2023-10-23T12:47:17.365Z,29.77
2023-10-23T12:50:20.427Z,29.57
2023-10-23T12:53:23.611Z,29.72
2023-10-23T12:56:26.849Z,29.78
2023-10-23T12:59:34.599Z,29.41
2023-10-23T13:02:38.058Z,31.81
2023-10-23T13:05:40.807Z,30.63
2023-10-23T13:08:44.501Z,31.89
2023-10-23T13:11:47.665Z,30.72
2023-10-23T13:14:50.525Z,32.90
2023-10-23T13:17:57.406Z,37.21
2023-10-23T13:21:32.049Z,39.37
2023-10-23T13:24:23.080Z,36.93
2023-10-23T13:27:25.859Z,37.16
2023-10-23T13:30:28.562Z,37.06
2023-10-23T13:33:31.227Z,38.07
2023-10-23T13:36:33.903Z,38.38
2023-10-23T13:39:36.618Z,38.63
2023-10-23T13:42:39.259Z,40.37
2023-10-23T13:45:41.962Z,43.31
2023-10-23T13:49:04.380Z,45.76
2023-10-23T13:52:10.882Z,47.08
2023-10-23T13:55:13.623Z,47.08
2023-10-23T13:58:16.530Z,47.72
2023-10-23T14:01:19.678Z,48.65
2023-10-23T14:04:22.643Z,47.34
2023-10-23T14:07:25.505Z,44.58
2023-10-23T14:10:29.603Z,44.71
2023-10-23T14:13:32.315Z,39.21
2023-10-23T14:16:35.108Z,38.45
2023-10-23T14:19:46.813Z,38.65
2023-10-23T14:22:50.837Z,41.24
2023-10-23T14:25:53.428Z,40.36
2023-10-23T14:29:09.257Z,45.10
2023-10-23T14:32:12.444Z,49.25
2023-10-23T14:35:15.379Z,50.11
2023-10-23T14:38:24.878Z,50.49
2023-10-23T14:41:27.677Z,52.79
2023-10-23T14:44:30.993Z,54.36
2023-10-23T14:47:33.945Z,55.43
2023-10-23T14:50:39.467Z,55.45
2023-10-23T14:53:42.075Z,55.88
2023-10-23T14:56:45.886Z,56.24
2023-10-23T14:59:48.547Z,55.75
2023-10-23T15:02:51.178Z,56.06
2023-10-23T15:05:54.559Z,57.37
2023-10-23T15:08:59.107Z,58.89
2023-10-23T15:12:01.798Z,60.75
2023-10-23T15:15:04.886Z,63.11
2023-10-23T15:18:17.135Z,70.24
2023-10-23T15:21:19.975Z,71.38
2023-10-23T15:24:22.997Z,71.44
2023-10-23T15:27:25.641Z,72.55
2023-10-23T15:30:28.334Z,76.91
2023-10-23T15:33:32.145Z,79.86
2023-10-23T15:36:35.116Z,81.53
2023-10-23T15:39:41.891Z,81.31
2023-10-23T15:42:44.534Z,81.57
2023-10-23T15:45:51.220Z,85.31
2023-10-23T15:48:54.248Z,90.11
2023-10-23T15:51:57.383Z,91.85
2023-10-23T15:55:00.044Z,92.82
2023-10-23T15:58:04.694Z,97.92
2023-10-23T16:01:08.307Z,98.84
2023-10-23T16:04:12.424Z,100.00
2023-10-23T16:07:15.082Z,100.00
2023-10-23T16:10:17.849Z,100.00
2023-10-23T16:13:20.699Z,100.00
2023-10-23T16:16:23.449Z,100.00
2023-10-23T16:19:26.476Z,100.00
2023-10-23T16:22:29.272Z,100.00
2023-10-23T16:25:35.071Z,100.00
2023-10-23T16:28:37.919Z,100.00
2023-10-23T16:31:40.769Z,100.00
2023-10-23T16:34:43.801Z,100.00
2023-10-23T16:37:46.884Z,100.00
2023-10-23T16:40:49.590Z,100.00
2023-10-23T16:43:52.222Z,100.00
2023-10-23T16:46:55.242Z,100.00
2023-10-23T16:49:58.007Z,100.00
2023-10-23T16:53:02.960Z,100.00
2023-10-23T16:56:09.281Z,100.00
2023-10-23T16:59:13.612Z,100.00
2023-10-23T17:02:16.407Z,100.00
2023-10-23T17:05:19.206Z,100.00
2023-10-23T17:08:21.859Z,100.00
2023-10-23T17:11:24.534Z,100.00
2023-10-23T17:14:27.334Z,100.00
2023-10-23T17:17:31.721Z,100.00
2023-10-23T17:20:39.859Z,100.00
2023-10-23T17:23:42.605Z,100.00
2023-10-23T17:26:45.516Z,100.00
2023-10-23T17:29:48.233Z,100.00
2023-10-23T17:32:51.717Z,100.00
2023-10-23T17:35:55.444Z,100.00
2023-10-23T17:38:59.146Z,100.00
2023-10-23T17:42:03.164Z,100.00
2023-10-23T17:45:06.727Z,100.00
2023-10-23T17:48:09.659Z,100.00
2023-10-23T17:51:16.717Z,100.00
2023-10-23T17:54:20.426Z,100.00
2023-10-23T17:57:27.390Z,100.00
2023-10-23T18:00:30.346Z,100.00
2023-10-23T18:03:33.304Z,100.00
2023-10-23T18:06:36.134Z,100.00
2023-10-23T18:09:40.226Z,100.00
2023-10-23T18:12:43.193Z,100.00
2023-10-23T18:15:45.991Z,100.00
2023-10-23T18:18:48.624Z,100.00
2023-10-23T18:21:51.602Z,100.00
2023-10-23T18:24:56.100Z,100.00
2023-10-23T18:27:59.255Z,100.00
2023-10-23T18:31:02.028Z,100.00
2023-10-23T18:34:05.142Z,100.00
2023-10-23T18:37:08.169Z,100.00
2023-10-23T18:40:11.297Z,100.00
2023-10-23T18:43:14.138Z,100.00
2023-10-23T18:46:17.262Z,100.00
2023-10-23T18:49:20.560Z,100.00
2023-10-23T18:52:23.602Z,100.00
2023-10-23T18:55:26.356Z,100.00
2023-10-23T18:58:29.268Z,100.00
2023-10-23T19:01:31.981Z,100.00
2023-10-23T19:04:34.763Z,100.00
2023-10-23T19:07:37.535Z,100.00
2023-10-23T19:10:40.677Z,100.00
2023-10-23T19:13:43.437Z,100.00
2023-10-23T19:16:46.583Z,100.00
2023-10-23T19:19:49.281Z,100.00
2023-10-23T19:22:52.127Z,100.00
2023-10-23T19:25:55.348Z,100.00
2023-10-23T19:28:58.080Z,100.00
2023-10-23T19:32:01.072Z,100.00
2023-10-23T19:35:04.103Z,100.00
2023-10-23T19:38:07.298Z,100.00
2023-10-23T19:41:17.751Z,100.00
2023-10-23T19:44:21.104Z,100.00
2023-10-23T19:47:24.297Z,100.00
2023-10-23T19:50:27.987Z,100.00
2023-10-23T19:53:30.901Z,100.00
2023-10-23T19:56:44.671Z,100.00
2023-10-23T19:59:47.478Z,100.00
2023-10-23T20:02:51.749Z,100.00
2023-10-23T20:05:56.090Z,100.00
2023-10-23T20:08:58.998Z,100.00
2023-10-23T20:12:01.674Z,100.00
2023-10-23T20:15:05.582Z,100.00
2023-10-23T20:18:11.396Z,100.00
2023-10-23T20:21:15.423Z,100.00
2023-10-23T20:24:18.190Z,100.00
2023-10-23T20:27:21.044Z,100.00
2023-10-23T20:30:23.811Z,100.00
2023-10-23T20:33:26.610Z,100.00
2023-10-23T20:36:29.253Z,100.00
2023-10-23T20:39:31.878Z,100.00
2023-10-23T20:42:35.593Z,100.00
2023-10-23T20:45:39.076Z,100.00
2023-10-23T20:48:41.784Z,100.00
2023-10-23T20:51:44.534Z,100.00
2023-10-23T20:54:47.314Z,100.00
2023-10-23T20:57:49.979Z,100.00
2023-10-23T21:00:52.719Z,100.00
2023-10-23T21:03:55.891Z,100.00
2023-10-23T21:06:58.540Z,100.00
2023-10-23T21:10:01.307Z,100.00
2023-10-23T21:13:04.105Z,100.00
2023-10-23T21:16:08.183Z,100.00
2023-10-23T21:19:10.900Z,100.00
2023-10-23T21:22:13.607Z,100.00
2023-10-23T21:25:16.870Z,100.00
2023-10-23T21:28:27.009Z,100.00
2023-10-23T21:31:29.911Z,100.00
2023-10-23T21:34:32.640Z,100.00
2023-10-23T21:37:35.421Z,100.00
2023-10-23T21:40:38.155Z,100.00
2023-10-23T21:43:40.998Z,100.00
2023-10-23T21:46:43.892Z,100.00
2023-10-23T21:49:47.182Z,100.00
2023-10-23T21:52:50.249Z,100.00
2023-10-23T21:55:53.102Z,100.00
2023-10-23T21:59:02.694Z,100.00
2023-10-23T22:02:13.462Z,100.00
2023-10-23T22:05:16.304Z,100.00
2023-10-23T22:08:19.286Z,100.00
2023-10-23T22:11:22.242Z,100.00
2023-10-23T22:14:25.199Z,100.00
2023-10-23T22:17:27.939Z,100.00
2023-10-23T22:20:30.767Z,100.00
2023-10-23T22:23:33.491Z,100.00
2023-10-23T22:26:36.206Z,100.00
2023-10-23T22:29:38.938Z,100.00
2023-10-23T22:32:41.808Z,100.00
2023-10-23T22:35:44.555Z,100.00
2023-10-23T22:38:47.246Z,100.00
2023-10-23T22:41:50.034Z,100.00
2023-10-23T22:44:52.832Z,100.00
2023-10-23T22:47:55.476Z,100.00
2023-10-23T22:50:58.785Z,100.00
2023-10-23T22:54:01.573Z,100.00
2023-10-23T22:57:06.347Z,100.00
2023-10-23T23:00:11.437Z,100.00
2023-10-23T23:03:14.443Z,100.00
2023-10-23T23:06:20.308Z,100.00
2023-10-23T23:09:23.340Z,100.00
2023-10-23T23:12:26.322Z,100.00
2023-10-23T23:15:29.537Z,100.00
2023-10-23T23:18:33.802Z,100.00
2023-10-23T23:21:42.813Z,100.00
2023-10-23T23:24:45.445Z,100.00
2023-10-23T23:27:48.047Z,100.00
2023-10-23T23:30:50.802Z,100.00
2023-10-23T23:33:53.616Z,100.00
2023-10-23T23:36:56.843Z,100.00
2023-10-23T23:39:59.459Z,100.00
2023-10-23T23:43:02.085Z,100.00
2023-10-23T23:46:04.948Z,100.00
2023-10-23T23:49:07.783Z,100.00
2023-10-23T23:52:10.582Z,100.00
2023-10-23T23:55:13.680Z,100.00
2023-10-23T23:58:16.476Z,100.00
